sensor_id;sensor_type;location;lat;lon;timestamp;P1;durP1;ratioP1;P2;durP2;ratioP2
59653;SDS011;66556;52.008;5.432;2023-04-28T00:03:09;8.4;;;4.8;;
59653;SDS011;66556;52.008;5.432;2023-04-28T00:04:45;10.0;;;4.91;;
59653;SDS011;66556;52.008;5.432;2023-04-28T00:06:21;10.1;;;5.11;;
59653;SDS011;66556;52.008;5.432;2023-04-28T00:07:57;9.71;;;5.11;;
59653;SDS011;66556;52.008;5.432;2023-04-28T00:11:11;9.6;;;5.0;;
59653;SDS011;66556;52.008;5.432;2023-04-28T00:12:47;10.7;;;5.7;;
59653;SDS011;66556;52.008;5.432;2023-04-28T00:14:23;8.2;;;5.11;;
59653;SDS011;66556;52.008;5.432;2023-04-28T00:17:36;8.9;;;5.2;;
59653;SDS011;66556;52.008;5.432;2023-04-28T00:19:12;8.6;;;5.0;;
59653;SDS011;66556;52.008;5.432;2023-04-28T00:20:48;8.71;;;5.3;;
59653;SDS011;66556;52.008;5.432;2023-04-28T00:24:00;9.4;;;5.11;;
59653;SDS011;66556;52.008;5.432;2023-04-28T00:25:36;8.0;;;5.11;;
59653;SDS011;66556;52.008;5.432;2023-04-28T00:27:12;9.31;;;5.0;;
59653;SDS011;66556;52.008;5.432;2023-04-28T00:30:25;10.0;;;5.3;;
59653;SDS011;66556;52.008;5.432;2023-04-28T00:32:02;6.2;;;4.8;;
59653;SDS011;66556;52.008;5.432;2023-04-28T00:33:38;9.81;;;5.11;;
59653;SDS011;66556;52.008;5.432;2023-04-28T00:35:15;6.7;;;4.8;;
59653;SDS011;66556;52.008;5.432;2023-04-28T00:38:27;8.6;;;4.8;;
59653;SDS011;66556;52.008;5.432;2023-04-28T00:40:03;9.71;;;5.0;;
59653;SDS011;66556;52.008;5.432;2023-04-28T00:41:40;6.6;;;4.8;;
59653;SDS011;66556;52.008;5.432;2023-04-28T00:44:52;7.1;;;4.8;;
59653;SDS011;66556;52.008;5.432;2023-04-28T00:46:29;9.6;;;5.6;;
59653;SDS011;66556;52.008;5.432;2023-04-28T00:48:07;8.5;;;5.4;;
59653;SDS011;66556;52.008;5.432;2023-04-28T00:51:22;8.9;;;5.7;;
59653;SDS011;66556;52.008;5.432;2023-04-28T00:52:58;6.6;;;5.2;;
59653;SDS011;66556;52.008;5.432;2023-04-28T00:54:35;10.3;;;5.8;;
59653;SDS011;66556;52.008;5.432;2023-04-28T00:56:12;10.4;;;5.4;;
59653;SDS011;66556;52.008;5.432;2023-04-28T00:59:26;7.9;;;5.4;;
59653;SDS011;66556;52.008;5.432;2023-04-28T01:01:03;8.31;;;5.7;;
59653;SDS011;66556;52.008;5.432;2023-04-28T01:02:40;10.5;;;6.2;;
59653;SDS011;66556;52.008;5.432;2023-04-28T01:05:55;11.2;;;6.2;;
59653;SDS011;66556;52.008;5.432;2023-04-28T01:07:32;10.4;;;6.5;;
59653;SDS011;66556;52.008;5.432;2023-04-28T01:09:08;10.0;;;6.3;;
59653;SDS011;66556;52.008;5.432;2023-04-28T01:10:44;9.4;;;6.7;;
59653;SDS011;66556;52.008;5.432;2023-04-28T01:13:57;13.9;;;6.4;;
59653;SDS011;66556;52.008;5.432;2023-04-28T01:15:33;13.9;;;6.4;;
59653;SDS011;66556;52.008;5.432;2023-04-28T01:17:10;10.7;;;6.1;;
59653;SDS011;66556;52.008;5.432;2023-04-28T01:20:23;7.5;;;5.5;;
59653;SDS011;66556;52.008;5.432;2023-04-28T01:21:59;8.4;;;6.1;;
59653;SDS011;66556;52.008;5.432;2023-04-28T01:23:35;8.5;;;5.6;;
59653;SDS011;66556;52.008;5.432;2023-04-28T01:26:47;10.5;;;5.6;;
59653;SDS011;66556;52.008;5.432;2023-04-28T01:28:23;8.71;;;5.5;;
59653;SDS011;66556;52.008;5.432;2023-04-28T01:29:59;7.8;;;5.8;;
59653;SDS011;66556;52.008;5.432;2023-04-28T01:33:12;9.31;;;5.7;;
59653;SDS011;66556;52.008;5.432;2023-04-28T01:34:48;9.6;;;5.7;;
59653;SDS011;66556;52.008;5.432;2023-04-28T01:36:25;9.21;;;5.5;;
59653;SDS011;66556;52.008;5.432;2023-04-28T01:38:01;9.81;;;6.2;;
59653;SDS011;66556;52.008;5.432;2023-04-28T01:41:13;9.1;;;5.4;;
59653;SDS011;66556;52.008;5.432;2023-04-28T01:42:49;8.81;;;5.8;;
59653;SDS011;66556;52.008;5.432;2023-04-28T01:44:26;8.31;;;5.9;;
59653;SDS011;66556;52.008;5.432;2023-04-28T01:47:38;8.71;;;5.7;;
59653;SDS011;66556;52.008;5.432;2023-04-28T01:49:14;10.9;;;5.9;;
59653;SDS011;66556;52.008;5.432;2023-04-28T01:50:50;9.0;;;5.4;;
59653;SDS011;66556;52.008;5.432;2023-04-28T01:55:38;11.4;;;6.6;;
59653;SDS011;66556;52.008;5.432;2023-04-28T01:57:15;7.9;;;5.9;;
59653;SDS011;66556;52.008;5.432;2023-04-28T01:58:51;11.0;;;6.5;;
59653;SDS011;66556;52.008;5.432;2023-04-28T02:02:03;10.6;;;6.1;;
59653;SDS011;66556;52.008;5.432;2023-04-28T02:03:39;9.0;;;5.7;;
59653;SDS011;66556;52.008;5.432;2023-04-28T02:05:15;8.1;;;5.3;;
59653;SDS011;66556;52.008;5.432;2023-04-28T02:08:27;8.81;;;5.5;;
59653;SDS011;66556;52.008;5.432;2023-04-28T02:10:04;7.5;;;5.4;;
59653;SDS011;66556;52.008;5.432;2023-04-28T02:11:40;8.0;;;5.7;;
59653;SDS011;66556;52.008;5.432;2023-04-28T02:14:53;9.71;;;5.4;;
59653;SDS011;66556;52.008;5.432;2023-04-28T02:16:29;8.31;;;4.91;;
59653;SDS011;66556;52.008;5.432;2023-04-28T02:18:05;7.2;;;5.3;;
59653;SDS011;66556;52.008;5.432;2023-04-28T02:21:17;9.71;;;5.3;;
59653;SDS011;66556;52.008;5.432;2023-04-28T02:22:53;9.9;;;5.2;;
59653;SDS011;66556;52.008;5.432;2023-04-28T02:24:29;9.1;;;5.2;;
59653;SDS011;66556;52.008;5.432;2023-04-28T02:26:08;7.9;;;5.2;;
59653;SDS011;66556;52.008;5.432;2023-04-28T02:29:21;7.4;;;4.91;;
59653;SDS011;66556;52.008;5.432;2023-04-28T02:31:12;7.8;;;5.11;;
59653;SDS011;66556;52.008;5.432;2023-04-28T02:32:49;8.0;;;5.11;;
59653;SDS011;66556;52.008;5.432;2023-04-28T02:34:25;11.8;;;5.4;;
59653;SDS011;66556;52.008;5.432;2023-04-28T02:37:40;8.6;;;5.3;;
59653;SDS011;66556;52.008;5.432;2023-04-28T02:39:15;7.1;;;4.91;;
59653;SDS011;66556;52.008;5.432;2023-04-28T02:40:56;9.1;;;4.91;;
59653;SDS011;66556;52.008;5.432;2023-04-28T02:44:09;9.1;;;4.7;;
59653;SDS011;66556;52.008;5.432;2023-04-28T02:45:45;7.2;;;5.0;;
59653;SDS011;66556;52.008;5.432;2023-04-28T02:47:21;8.1;;;4.91;;
59653;SDS011;66556;52.008;5.432;2023-04-28T02:50:33;11.0;;;5.11;;
59653;SDS011;66556;52.008;5.432;2023-04-28T02:52:09;9.4;;;4.91;;
59653;SDS011;66556;52.008;5.432;2023-04-28T02:53:46;7.6;;;5.0;;
59653;SDS011;66556;52.008;5.432;2023-04-28T02:55:22;7.2;;;4.91;;
59653;SDS011;66556;52.008;5.432;2023-04-28T02:58:34;8.9;;;5.0;;
59653;SDS011;66556;52.008;5.432;2023-04-28T03:00:11;8.0;;;4.91;;
59653;SDS011;66556;52.008;5.432;2023-04-28T03:01:47;7.7;;;4.8;;
59653;SDS011;66556;52.008;5.432;2023-04-28T03:05:01;6.8;;;5.3;;
59653;SDS011;66556;52.008;5.432;2023-04-28T03:06:37;7.3;;;4.7;;
59653;SDS011;66556;52.008;5.432;2023-04-28T03:08:13;8.31;;;5.11;;
59653;SDS011;66556;52.008;5.432;2023-04-28T03:11:25;6.5;;;4.5;;
59653;SDS011;66556;52.008;5.432;2023-04-28T03:13:01;6.8;;;4.7;;
59653;SDS011;66556;52.008;5.432;2023-04-28T03:14:37;8.6;;;4.91;;
59653;SDS011;66556;52.008;5.432;2023-04-28T03:16:13;7.8;;;4.7;;
59653;SDS011;66556;52.008;5.432;2023-04-28T03:19:25;9.4;;;4.8;;
59653;SDS011;66556;52.008;5.432;2023-04-28T03:21:02;8.5;;;4.7;;
59653;SDS011;66556;52.008;5.432;2023-04-28T03:22:38;7.1;;;4.61;;
59653;SDS011;66556;52.008;5.432;2023-04-28T03:25:50;7.6;;;5.0;;
59653;SDS011;66556;52.008;5.432;2023-04-28T03:27:26;7.4;;;5.0;;
59653;SDS011;66556;52.008;5.432;2023-04-28T03:29:02;10.5;;;5.4;;
59653;SDS011;66556;52.008;5.432;2023-04-28T03:32:14;8.5;;;5.2;;
59653;SDS011;66556;52.008;5.432;2023-04-28T03:33:51;7.6;;;4.7;;
59653;SDS011;66556;52.008;5.432;2023-04-28T03:35:27;7.8;;;4.8;;
59653;SDS011;66556;52.008;5.432;2023-04-28T03:38:39;8.0;;;4.91;;
59653;SDS011;66556;52.008;5.432;2023-04-28T03:40:15;6.1;;;4.7;;
59653;SDS011;66556;52.008;5.432;2023-04-28T03:41:51;8.0;;;4.91;;
59653;SDS011;66556;52.008;5.432;2023-04-28T03:43:27;7.9;;;5.0;;
59653;SDS011;66556;52.008;5.432;2023-04-28T03:46:41;8.0;;;5.6;;
59653;SDS011;66556;52.008;5.432;2023-04-28T03:48:17;9.1;;;5.4;;
59653;SDS011;66556;52.008;5.432;2023-04-28T03:49:53;9.0;;;5.2;;
59653;SDS011;66556;52.008;5.432;2023-04-28T03:53:05;9.4;;;5.3;;
59653;SDS011;66556;52.008;5.432;2023-04-28T03:54:41;6.8;;;5.3;;
59653;SDS011;66556;52.008;5.432;2023-04-28T03:56:17;9.0;;;5.11;;
59653;SDS011;66556;52.008;5.432;2023-04-28T03:59:31;8.9;;;5.4;;
59653;SDS011;66556;52.008;5.432;2023-04-28T04:01:07;8.81;;;5.0;;
59653;SDS011;66556;52.008;5.432;2023-04-28T04:02:43;9.6;;;5.0;;
59653;SDS011;66556;52.008;5.432;2023-04-28T04:05:55;9.0;;;5.4;;
59653;SDS011;66556;52.008;5.432;2023-04-28T04:07:31;9.1;;;5.6;;
59653;SDS011;66556;52.008;5.432;2023-04-28T04:09:07;10.7;;;5.6;;
59653;SDS011;66556;52.008;5.432;2023-04-28T04:10:43;7.6;;;5.3;;
59653;SDS011;66556;52.008;5.432;2023-04-28T04:13:56;9.9;;;5.8;;
59653;SDS011;66556;52.008;5.432;2023-04-28T04:15:32;11.4;;;6.3;;
59653;SDS011;66556;52.008;5.432;2023-04-28T04:17:08;8.6;;;5.6;;
59653;SDS011;66556;52.008;5.432;2023-04-28T04:20:21;9.31;;;5.7;;
59653;SDS011;66556;52.008;5.432;2023-04-28T04:21:57;9.81;;;6.1;;
59653;SDS011;66556;52.008;5.432;2023-04-28T04:23:33;10.6;;;6.2;;
59653;SDS011;66556;52.008;5.432;2023-04-28T04:26:46;21.7;;;14.1;;
59653;SDS011;66556;52.008;5.432;2023-04-28T04:28:22;10.1;;;6.3;;
59653;SDS011;66556;52.008;5.432;2023-04-28T04:29:58;9.1;;;6.3;;
59653;SDS011;66556;52.008;5.432;2023-04-28T04:31:34;9.21;;;6.3;;
59653;SDS011;66556;52.008;5.432;2023-04-28T04:34:46;10.1;;;6.4;;
59653;SDS011;66556;52.008;5.432;2023-04-28T04:36:22;9.81;;;6.5;;
59653;SDS011;66556;52.008;5.432;2023-04-28T04:37:59;10.21;;;6.7;;
59653;SDS011;66556;52.008;5.432;2023-04-28T04:41:11;10.4;;;6.6;;
59653;SDS011;66556;52.008;5.432;2023-04-28T04:42:47;11.1;;;7.0;;
59653;SDS011;66556;52.008;5.432;2023-04-28T04:44:23;9.6;;;7.3;;
59653;SDS011;66556;52.008;5.432;2023-04-28T04:47:35;10.7;;;7.7;;
59653;SDS011;66556;52.008;5.432;2023-04-28T04:49:11;11.6;;;7.3;;
59653;SDS011;66556;52.008;5.432;2023-04-28T04:50:47;11.4;;;7.7;;
59653;SDS011;66556;52.008;5.432;2023-04-28T04:54:00;11.8;;;7.7;;
59653;SDS011;66556;52.008;5.432;2023-04-28T04:55:36;10.9;;;8.0;;
59653;SDS011;66556;52.008;5.432;2023-04-28T04:57:12;12.0;;;8.2;;
59653;SDS011;66556;52.008;5.432;2023-04-28T04:58:49;11.7;;;7.8;;
59653;SDS011;66556;52.008;5.432;2023-04-28T05:02:04;11.1;;;8.0;;
59653;SDS011;66556;52.008;5.432;2023-04-28T05:03:39;11.9;;;8.31;;
59653;SDS011;66556;52.008;5.432;2023-04-28T05:05:16;13.1;;;8.31;;
59653;SDS011;66556;52.008;5.432;2023-04-28T05:08:28;12.0;;;8.4;;
59653;SDS011;66556;52.008;5.432;2023-04-28T05:10:04;14.2;;;8.4;;
59653;SDS011;66556;52.008;5.432;2023-04-28T05:11:41;11.6;;;8.2;;
59653;SDS011;66556;52.008;5.432;2023-04-28T05:14:53;12.4;;;8.4;;
59653;SDS011;66556;52.008;5.432;2023-04-28T05:16:29;11.7;;;8.1;;
59653;SDS011;66556;52.008;5.432;2023-04-28T05:18:06;12.2;;;8.5;;
59653;SDS011;66556;52.008;5.432;2023-04-28T05:19:42;13.7;;;8.81;;
59653;SDS011;66556;52.008;5.432;2023-04-28T05:22:54;13.1;;;8.71;;
59653;SDS011;66556;52.008;5.432;2023-04-28T05:24:30;12.5;;;8.9;;
59653;SDS011;66556;52.008;5.432;2023-04-28T05:26:06;13.7;;;8.6;;
59653;SDS011;66556;52.008;5.432;2023-04-28T05:30:55;13.2;;;8.9;;
59653;SDS011;66556;52.008;5.432;2023-04-28T05:32:31;13.5;;;9.5;;
59653;SDS011;66556;52.008;5.432;2023-04-28T05:35:45;16.0;;;9.1;;
59653;SDS011;66556;52.008;5.432;2023-04-28T05:37:21;12.2;;;9.21;;
59653;SDS011;66556;52.008;5.432;2023-04-28T05:38:58;12.4;;;9.1;;
59653;SDS011;66556;52.008;5.432;2023-04-28T05:40:34;12.9;;;9.1;;
59653;SDS011;66556;52.008;5.432;2023-04-28T05:43:47;11.6;;;9.0;;
59653;SDS011;66556;52.008;5.432;2023-04-28T05:45:23;13.6;;;9.4;;
59653;SDS011;66556;52.008;5.432;2023-04-28T05:47:00;12.0;;;9.5;;
59653;SDS011;66556;52.008;5.432;2023-04-28T05:50:13;13.3;;;9.71;;
59653;SDS011;66556;52.008;5.432;2023-04-28T05:51:49;12.3;;;9.5;;
59653;SDS011;66556;52.008;5.432;2023-04-28T05:53:25;13.5;;;10.5;;
59653;SDS011;66556;52.008;5.432;2023-04-28T05:56:38;13.9;;;10.0;;
59653;SDS011;66556;52.008;5.432;2023-04-28T05:58:14;15.0;;;10.1;;
59653;SDS011;66556;52.008;5.432;2023-04-28T05:59:50;13.9;;;10.6;;
59653;SDS011;66556;52.008;5.432;2023-04-28T06:03:04;16.9;;;11.3;;
59653;SDS011;66556;52.008;5.432;2023-04-28T06:04:40;14.7;;;11.6;;
59653;SDS011;66556;52.008;5.432;2023-04-28T06:06:16;15.2;;;11.8;;
59653;SDS011;66556;52.008;5.432;2023-04-28T06:07:53;15.5;;;12.1;;
59653;SDS011;66556;52.008;5.432;2023-04-28T06:11:05;16.8;;;12.3;;
59653;SDS011;66556;52.008;5.432;2023-04-28T06:12:41;15.6;;;12.5;;
59653;SDS011;66556;52.008;5.432;2023-04-28T06:14:17;16.2;;;12.6;;
59653;SDS011;66556;52.008;5.432;2023-04-28T06:17:29;16.5;;;12.5;;
59653;SDS011;66556;52.008;5.432;2023-04-28T06:19:05;20.0;;;13.3;;
59653;SDS011;66556;52.008;5.432;2023-04-28T06:20:41;18.2;;;13.4;;
59653;SDS011;66556;52.008;5.432;2023-04-28T06:23:54;16.8;;;13.7;;
59653;SDS011;66556;52.008;5.432;2023-04-28T06:25:30;16.61;;;12.9;;
59653;SDS011;66556;52.008;5.432;2023-04-28T06:27:06;17.41;;;13.2;;
59653;SDS011;66556;52.008;5.432;2023-04-28T06:28:42;19.2;;;12.8;;
59653;SDS011;66556;52.008;5.432;2023-04-28T06:31:57;18.3;;;13.7;;
59653;SDS011;66556;52.008;5.432;2023-04-28T06:33:33;19.0;;;13.6;;
59653;SDS011;66556;52.008;5.432;2023-04-28T06:35:10;17.8;;;13.3;;
59653;SDS011;66556;52.008;5.432;2023-04-28T06:38:22;21.8;;;14.1;;
59653;SDS011;66556;52.008;5.432;2023-04-28T06:39:58;21.6;;;14.9;;
59653;SDS011;66556;52.008;5.432;2023-04-28T06:41:34;23.0;;;14.5;;
59653;SDS011;66556;52.008;5.432;2023-04-28T06:44:46;18.11;;;13.9;;
59653;SDS011;66556;52.008;5.432;2023-04-28T06:46:22;19.41;;;14.5;;
59653;SDS011;66556;52.008;5.432;2023-04-28T06:47:59;20.9;;;14.3;;
59653;SDS011;66556;52.008;5.432;2023-04-28T06:51:10;19.3;;;14.5;;
59653;SDS011;66556;52.008;5.432;2023-04-28T06:52:46;17.41;;;13.7;;
59653;SDS011;66556;52.008;5.432;2023-04-28T06:54:22;17.2;;;14.3;;
59653;SDS011;66556;52.008;5.432;2023-04-28T06:55:58;18.91;;;13.5;;
59653;SDS011;66556;52.008;5.432;2023-04-28T06:59:11;19.7;;;13.9;;
59653;SDS011;66556;52.008;5.432;2023-04-28T07:00:48;18.61;;;14.2;;
59653;SDS011;66556;52.008;5.432;2023-04-28T07:02:24;17.0;;;14.2;;
59653;SDS011;66556;52.008;5.432;2023-04-28T07:05:36;19.0;;;13.7;;
59653;SDS011;66556;52.008;5.432;2023-04-28T07:07:12;21.8;;;15.4;;
59653;SDS011;66556;52.008;5.432;2023-04-28T07:08:48;18.41;;;13.7;;
59653;SDS011;66556;52.008;5.432;2023-04-28T07:12:01;17.5;;;14.9;;
59653;SDS011;66556;52.008;5.432;2023-04-28T07:13:38;19.5;;;15.2;;
59653;SDS011;66556;52.008;5.432;2023-04-28T07:15:14;19.41;;;14.3;;
59653;SDS011;66556;52.008;5.432;2023-04-28T07:16:50;20.2;;;15.2;;
59653;SDS011;66556;52.008;5.432;2023-04-28T07:20:02;17.8;;;14.3;;
59653;SDS011;66556;52.008;5.432;2023-04-28T07:21:39;20.2;;;14.8;;
59653;SDS011;66556;52.008;5.432;2023-04-28T07:23:15;19.11;;;14.7;;
59653;SDS011;66556;52.008;5.432;2023-04-28T07:26:29;21.0;;;15.2;;
59653;SDS011;66556;52.008;5.432;2023-04-28T07:28:05;20.11;;;15.5;;
59653;SDS011;66556;52.008;5.432;2023-04-28T07:29:42;19.8;;;15.5;;
59653;SDS011;66556;52.008;5.432;2023-04-28T07:32:54;20.7;;;15.6;;
59653;SDS011;66556;52.008;5.432;2023-04-28T07:34:30;21.7;;;15.9;;
59653;SDS011;66556;52.008;5.432;2023-04-28T07:36:06;20.11;;;15.4;;
59653;SDS011;66556;52.008;5.432;2023-04-28T07:39:19;20.0;;;15.3;;
59653;SDS011;66556;52.008;5.432;2023-04-28T07:40:55;20.5;;;16.11;;
59653;SDS011;66556;52.008;5.432;2023-04-28T07:42:31;19.5;;;16.2;;
59653;SDS011;66556;52.008;5.432;2023-04-28T07:44:07;21.2;;;16.5;;
59653;SDS011;66556;52.008;5.432;2023-04-28T07:47:19;20.9;;;16.11;;
59653;SDS011;66556;52.008;5.432;2023-04-28T07:48:55;21.2;;;17.2;;
59653;SDS011;66556;52.008;5.432;2023-04-28T07:50:32;20.41;;;16.0;;
59653;SDS011;66556;52.008;5.432;2023-04-28T07:53:45;20.3;;;16.9;;
59653;SDS011;66556;52.008;5.432;2023-04-28T07:55:21;19.61;;;16.2;;
59653;SDS011;66556;52.008;5.432;2023-04-28T07:56:57;23.9;;;17.11;;
59653;SDS011;66556;52.008;5.432;2023-04-28T08:00:09;20.7;;;16.8;;
59653;SDS011;66556;52.008;5.432;2023-04-28T08:01:46;19.5;;;16.4;;
59653;SDS011;66556;52.008;5.432;2023-04-28T08:03:22;19.8;;;16.61;;
59653;SDS011;66556;52.008;5.432;2023-04-28T08:04:59;20.2;;;16.7;;
59653;SDS011;66556;52.008;5.432;2023-04-28T08:08:11;19.3;;;16.61;;
59653;SDS011;66556;52.008;5.432;2023-04-28T08:09:48;22.6;;;16.8;;
59653;SDS011;66556;52.008;5.432;2023-04-28T08:11:23;23.6;;;17.7;;
59653;SDS011;66556;52.008;5.432;2023-04-28T08:14:36;23.0;;;18.0;;
59653;SDS011;66556;52.008;5.432;2023-04-28T08:16:13;20.8;;;17.0;;
59653;SDS011;66556;52.008;5.432;2023-04-28T08:17:49;22.1;;;16.9;;
59653;SDS011;66556;52.008;5.432;2023-04-28T08:21:02;19.8;;;16.11;;
59653;SDS011;66556;52.008;5.432;2023-04-28T08:22:38;21.8;;;16.8;;
59653;SDS011;66556;52.008;5.432;2023-04-28T08:24:14;21.7;;;17.0;;
59653;SDS011;66556;52.008;5.432;2023-04-28T08:25:50;20.6;;;16.9;;
59653;SDS011;66556;52.008;5.432;2023-04-28T08:29:03;19.11;;;16.8;;
59653;SDS011;66556;52.008;5.432;2023-04-28T08:30:39;22.2;;;16.3;;
59653;SDS011;66556;52.008;5.432;2023-04-28T08:32:15;23.3;;;17.61;;
59653;SDS011;66556;52.008;5.432;2023-04-28T08:35:27;19.0;;;16.61;;
59653;SDS011;66556;52.008;5.432;2023-04-28T08:37:05;21.1;;;17.5;;
59653;SDS011;66556;52.008;5.432;2023-04-28T08:38:41;20.7;;;17.11;;
59653;SDS011;66556;52.008;5.432;2023-04-28T08:41:55;19.61;;;16.4;;
59653;SDS011;66556;52.008;5.432;2023-04-28T08:43:31;20.8;;;17.11;;
59653;SDS011;66556;52.008;5.432;2023-04-28T08:45:08;20.41;;;17.61;;
59653;SDS011;66556;52.008;5.432;2023-04-28T08:46:48;20.7;;;17.41;;
59653;SDS011;66556;52.008;5.432;2023-04-28T08:50:13;22.6;;;18.41;;
59653;SDS011;66556;52.008;5.432;2023-04-28T08:51:54;20.11;;;17.8;;
59653;SDS011;66556;52.008;5.432;2023-04-28T08:53:35;21.9;;;16.9;;
59653;SDS011;66556;52.008;5.432;2023-04-28T08:55:13;20.5;;;17.41;;
59653;SDS011;66556;52.008;5.432;2023-04-28T08:58:27;25.5;;;18.7;;
59653;SDS011;66556;52.008;5.432;2023-04-28T09:00:03;22.6;;;17.91;;
59653;SDS011;66556;52.008;5.432;2023-04-28T09:01:40;23.4;;;17.3;;
59653;SDS011;66556;52.008;5.432;2023-04-28T09:04:52;22.9;;;18.7;;
59653;SDS011;66556;52.008;5.432;2023-04-28T09:06:30;24.4;;;19.8;;
59653;SDS011;66556;52.008;5.432;2023-04-28T09:08:08;21.7;;;18.5;;
59653;SDS011;66556;52.008;5.432;2023-04-28T09:11:20;23.8;;;17.3;;
59653;SDS011;66556;52.008;5.432;2023-04-28T09:12:56;19.11;;;16.9;;
59653;SDS011;66556;52.008;5.432;2023-04-28T09:14:33;21.2;;;17.2;;
59653;SDS011;66556;52.008;5.432;2023-04-28T09:16:11;19.61;;;16.8;;
59653;SDS011;66556;52.008;5.432;2023-04-28T09:19:27;20.11;;;16.8;;
59653;SDS011;66556;52.008;5.432;2023-04-28T09:21:08;19.61;;;17.5;;
59653;SDS011;66556;52.008;5.432;2023-04-28T09:22:45;19.61;;;16.4;;
59653;SDS011;66556;52.008;5.432;2023-04-28T09:26:06;19.3;;;16.5;;
59653;SDS011;66556;52.008;5.432;2023-04-28T09:27:43;19.0;;;15.9;;
59653;SDS011;66556;52.008;5.432;2023-04-28T09:29:19;19.61;;;16.4;;
59653;SDS011;66556;52.008;5.432;2023-04-28T09:30:55;22.2;;;17.5;;
59653;SDS011;66556;52.008;5.432;2023-04-28T09:34:07;19.3;;;16.2;;
59653;SDS011;66556;52.008;5.432;2023-04-28T09:35:44;19.11;;;16.3;;
59653;SDS011;66556;52.008;5.432;2023-04-28T09:37:20;18.0;;;14.8;;
59653;SDS011;66556;52.008;5.432;2023-04-28T09:40:48;17.61;;;15.7;;
59653;SDS011;66556;52.008;5.432;2023-04-28T09:42:30;16.4;;;14.6;;
59653;SDS011;66556;52.008;5.432;2023-04-28T09:44:09;16.8;;;15.1;;
59653;SDS011;66556;52.008;5.432;2023-04-28T09:45:46;17.3;;;15.4;;
59653;SDS011;66556;52.008;5.432;2023-04-28T09:49:00;20.7;;;16.5;;
59653;SDS011;66556;52.008;5.432;2023-04-28T09:50:38;17.5;;;15.7;;
59653;SDS011;66556;52.008;5.432;2023-04-28T09:52:15;18.61;;;15.9;;
59653;SDS011;66556;52.008;5.432;2023-04-28T09:53:51;18.91;;;16.9;;
59653;SDS011;66556;52.008;5.432;2023-04-28T09:57:08;18.91;;;16.7;;
59653;SDS011;66556;52.008;5.432;2023-04-28T09:58:45;21.3;;;18.5;;
59653;SDS011;66556;52.008;5.432;2023-04-28T10:00:26;18.7;;;16.8;;
59653;SDS011;66556;52.008;5.432;2023-04-28T10:03:40;19.61;;;17.5;;
59653;SDS011;66556;52.008;5.432;2023-04-28T10:05:17;17.7;;;15.8;;
59653;SDS011;66556;52.008;5.432;2023-04-28T10:06:55;16.4;;;14.7;;
59653;SDS011;66556;52.008;5.432;2023-04-28T10:08:33;20.41;;;16.7;;
59653;SDS011;66556;52.008;5.432;2023-04-28T10:11:46;18.5;;;16.61;;
59653;SDS011;66556;52.008;5.432;2023-04-28T10:13:23;16.9;;;15.1;;
59653;SDS011;66556;52.008;5.432;2023-04-28T10:15:00;19.5;;;16.8;;
59653;SDS011;66556;52.008;5.432;2023-04-28T10:18:13;17.2;;;15.4;;
59653;SDS011;66556;52.008;5.432;2023-04-28T10:19:51;17.11;;;15.3;;
59653;SDS011;66556;52.008;5.432;2023-04-28T10:21:28;17.61;;;15.7;;
59653;SDS011;66556;52.008;5.432;2023-04-28T10:24:17;16.0;;;14.4;;
59653;SDS011;66556;52.008;5.432;2023-04-28T10:26:02;15.4;;;13.8;;
59653;SDS011;66556;52.008;5.432;2023-04-28T10:27:45;17.11;;;15.3;;
59653;SDS011;66556;52.008;5.432;2023-04-28T10:29:24;17.5;;;15.6;;
59653;SDS011;66556;52.008;5.432;2023-04-28T10:32:45;17.0;;;15.4;;
59653;SDS011;66556;52.008;5.432;2023-04-28T10:34:23;16.4;;;14.7;;
59653;SDS011;66556;52.008;5.432;2023-04-28T10:35:59;16.3;;;14.6;;
59653;SDS011;66556;52.008;5.432;2023-04-28T10:40:50;16.2;;;14.7;;
59653;SDS011;66556;52.008;5.432;2023-04-28T10:42:50;14.1;;;12.8;;
59653;SDS011;66556;52.008;5.432;2023-04-28T10:44:41;15.9;;;14.3;;
59653;SDS011;66556;52.008;5.432;2023-04-28T10:46:17;16.2;;;14.6;;
59653;SDS011;66556;52.008;5.432;2023-04-28T10:50:09;17.2;;;15.4;;
59653;SDS011;66556;52.008;5.432;2023-04-28T10:51:46;20.0;;;18.0;;
59653;SDS011;66556;52.008;5.432;2023-04-28T10:53:40;21.5;;;19.2;;
59653;SDS011;66556;52.008;5.432;2023-04-28T10:55:43;20.41;;;18.3;;
59653;SDS011;66556;52.008;5.432;2023-04-28T10:57:20;21.1;;;18.91;;
59653;SDS011;66556;52.008;5.432;2023-04-28T10:58:56;22.0;;;19.7;;
59653;SDS011;66556;52.008;5.432;2023-04-28T11:02:41;21.4;;;19.2;;
59653;SDS011;66556;52.008;5.432;2023-04-28T11:04:17;24.6;;;21.0;;
59653;SDS011;66556;52.008;5.432;2023-04-28T11:06:25;23.5;;;21.0;;
59653;SDS011;66556;52.008;5.432;2023-04-28T11:08:33;22.3;;;20.0;;
59653;SDS011;66556;52.008;5.432;2023-04-28T11:10:08;23.6;;;21.1;;
59653;SDS011;66556;52.008;5.432;2023-04-28T11:12:03;28.2;;;23.8;;
59653;SDS011;66556;52.008;5.432;2023-04-28T11:13:40;25.3;;;22.0;;
59653;SDS011;66556;52.008;5.432;2023-04-28T11:15:17;29.8;;;23.6;;
59653;SDS011;66556;52.008;5.432;2023-04-28T11:18:32;28.0;;;23.4;;
59653;SDS011;66556;52.008;5.432;2023-04-28T11:20:23;27.9;;;23.2;;
59653;SDS011;66556;52.008;5.432;2023-04-28T11:22:03;27.9;;;24.3;;
59653;SDS011;66556;52.008;5.432;2023-04-28T11:23:50;25.1;;;21.4;;
59653;SDS011;66556;52.008;5.432;2023-04-28T11:27:03;28.1;;;22.7;;
59653;SDS011;66556;52.008;5.432;2023-04-28T11:28:49;22.5;;;19.7;;
59653;SDS011;66556;52.008;5.432;2023-04-28T11:30:26;24.5;;;19.8;;
59653;SDS011;66556;52.008;5.432;2023-04-28T11:32:02;21.8;;;18.91;;
59653;SDS011;66556;52.008;5.432;2023-04-28T11:35:17;20.9;;;17.2;;
59653;SDS011;66556;52.008;5.432;2023-04-28T11:36:54;17.61;;;15.8;;
59653;SDS011;66556;52.008;5.432;2023-04-28T11:38:30;18.5;;;15.8;;
59653;SDS011;66556;52.008;5.432;2023-04-28T11:41:54;15.6;;;13.8;;
59653;SDS011;66556;52.008;5.432;2023-04-28T11:43:31;16.4;;;14.6;;
59653;SDS011;66556;52.008;5.432;2023-04-28T11:45:07;14.4;;;12.4;;
59653;SDS011;66556;52.008;5.432;2023-04-28T11:46:48;14.7;;;13.0;;
59653;SDS011;66556;52.008;5.432;2023-04-28T11:50:02;14.6;;;12.2;;
59653;SDS011;66556;52.008;5.432;2023-04-28T11:51:38;13.1;;;11.3;;
59653;SDS011;66556;52.008;5.432;2023-04-28T11:53:14;13.8;;;11.0;;
59653;SDS011;66556;52.008;5.432;2023-04-28T11:56:35;13.0;;;11.6;;
59653;SDS011;66556;52.008;5.432;2023-04-28T11:58:17;12.9;;;11.2;;
59653;SDS011;66556;52.008;5.432;2023-04-28T12:00:10;13.7;;;10.9;;
59653;SDS011;66556;52.008;5.432;2023-04-28T12:01:48;12.7;;;11.1;;
59653;SDS011;66556;52.008;5.432;2023-04-28T12:03:26;14.6;;;11.6;;
59653;SDS011;66556;52.008;5.432;2023-04-28T12:06:41;13.2;;;11.1;;
59653;SDS011;66556;52.008;5.432;2023-04-28T12:08:26;13.5;;;10.7;;
59653;SDS011;66556;52.008;5.432;2023-04-28T12:10:10;11.5;;;9.31;;
59653;SDS011;66556;52.008;5.432;2023-04-28T12:11:52;11.7;;;9.9;;
59653;SDS011;66556;52.008;5.432;2023-04-28T12:15:07;13.0;;;10.8;;
59653;SDS011;66556;52.008;5.432;2023-04-28T12:16:45;14.9;;;10.3;;
59653;SDS011;66556;52.008;5.432;2023-04-28T12:18:21;11.1;;;9.31;;
59653;SDS011;66556;52.008;5.432;2023-04-28T12:21:35;10.21;;;8.5;;
59653;SDS011;66556;52.008;5.432;2023-04-28T12:23:12;10.1;;;8.4;;
59653;SDS011;66556;52.008;5.432;2023-04-28T12:25:01;10.3;;;8.31;;
59653;SDS011;66556;52.008;5.432;2023-04-28T12:26:38;11.0;;;8.6;;
59653;SDS011;66556;52.008;5.432;2023-04-28T12:29:51;11.2;;;9.1;;
59653;SDS011;66556;52.008;5.432;2023-04-28T12:31:27;11.6;;;9.9;;
59653;SDS011;66556;52.008;5.432;2023-04-28T12:33:03;13.4;;;9.71;;
59653;SDS011;66556;52.008;5.432;2023-04-28T12:36:17;11.5;;;8.9;;
59653;SDS011;66556;52.008;5.432;2023-04-28T12:37:53;12.4;;;9.81;;
59653;SDS011;66556;52.008;5.432;2023-04-28T12:39:31;10.6;;;8.2;;
59653;SDS011;66556;52.008;5.432;2023-04-28T12:41:07;8.0;;;7.0;;
59653;SDS011;66556;52.008;5.432;2023-04-28T12:44:20;8.81;;;6.9;;
59653;SDS011;66556;52.008;5.432;2023-04-28T12:45:56;8.2;;;6.5;;
59653;SDS011;66556;52.008;5.432;2023-04-28T12:47:32;7.5;;;6.0;;
59653;SDS011;66556;52.008;5.432;2023-04-28T12:50:45;7.7;;;5.6;;